createdAt,value
2022-10-16T00:03:05.857Z,16.59
2022-10-16T00:08:11.837Z,16.50
2022-10-16T00:13:14.851Z,16.42
2022-10-16T00:18:18.410Z,16.36
2022-10-16T00:23:23.608Z,16.29
2022-10-16T00:28:27.553Z,17.21
2022-10-16T00:33:31.739Z,20.16
2022-10-16T00:38:35.665Z,20.68
2022-10-16T00:43:45.299Z,19.34
2022-10-16T00:49:04.811Z,18.61
2022-10-16T00:54:15.251Z,18.10
2022-10-16T00:59:28.284Z,17.70
2022-10-16T01:04:39.467Z,17.37
2022-10-16T01:10:07.214Z,17.10
2022-10-16T01:15:19.699Z,16.86
2022-10-16T01:20:49.215Z,16.66
2022-10-16T01:26:04.626Z,16.50
2022-10-16T01:31:11.591Z,17.48
2022-10-16T01:36:20.914Z,20.36
2022-10-16T01:41:34.560Z,20.43
2022-10-16T01:46:42.623Z,19.12
2022-10-16T01:51:51.228Z,18.43
2022-10-16T01:56:58.222Z,17.96
2022-10-16T02:02:07.201Z,17.57
2022-10-16T02:07:13.883Z,17.23
2022-10-16T02:12:22.543Z,16.94
2022-10-16T02:17:28.473Z,16.71
2022-10-16T02:22:40.925Z,16.49
2022-10-16T02:28:06.439Z,16.32
2022-10-16T02:33:15.134Z,16.19
2022-10-16T02:38:19.775Z,16.06
2022-10-16T02:43:26.223Z,17.08
2022-10-16T02:48:29.375Z,20.00
2022-10-16T02:53:32.712Z,20.21
2022-10-16T02:58:36.204Z,18.91
2022-10-16T03:03:40.192Z,18.21
2022-10-16T03:08:43.636Z,17.71
2022-10-16T03:13:46.875Z,17.30
2022-10-16T03:18:51.266Z,16.98
2022-10-16T03:23:54.116Z,16.69
2022-10-16T03:28:57.389Z,16.46
2022-10-16T03:34:00.904Z,16.27
2022-10-16T03:39:04.170Z,16.11
2022-10-16T03:44:09.005Z,17.07
2022-10-16T03:49:13.802Z,20.02
2022-10-16T03:54:16.887Z,20.12
2022-10-16T03:59:23.246Z,18.79
2022-10-16T04:04:26.417Z,18.06
2022-10-16T04:09:30.385Z,17.56
2022-10-16T04:14:33.229Z,17.14
2022-10-16T04:19:36.887Z,16.79
2022-10-16T04:24:40.097Z,16.50
2022-10-16T04:29:43.665Z,16.27
2022-10-16T04:34:46.713Z,17.20
2022-10-16T04:39:50.129Z,20.01
2022-10-16T04:44:53.131Z,20.39
2022-10-16T04:49:58.036Z,19.00
2022-10-16T04:55:03.686Z,18.20
2022-10-16T05:00:06.789Z,17.66
2022-10-16T05:05:10.181Z,17.23
2022-10-16T05:10:13.246Z,16.83
2022-10-16T05:15:16.414Z,16.49
2022-10-16T05:20:19.227Z,16.21
2022-10-16T05:25:22.393Z,17.10
2022-10-16T05:30:25.310Z,19.86
2022-10-16T05:35:28.296Z,19.91
2022-10-16T05:40:31.245Z,18.53
2022-10-16T05:45:34.052Z,17.77
2022-10-16T05:50:37.051Z,17.26
2022-10-16T05:55:39.866Z,16.83
2022-10-16T06:00:42.691Z,16.49
2022-10-16T06:05:45.542Z,16.23
2022-10-16T06:10:48.826Z,17.25
2022-10-16T06:15:51.751Z,19.99
2022-10-16T06:20:55.958Z,20.22
2022-10-16T06:26:06.618Z,18.86
2022-10-16T06:31:13.798Z,18.13
2022-10-16T06:36:18.418Z,17.66
2022-10-16T06:41:23.804Z,17.28
2022-10-16T06:46:27.870Z,16.99
2022-10-16T06:51:33.108Z,16.79
2022-10-16T06:56:36.160Z,17.82
2022-10-16T07:01:39.269Z,20.68
2022-10-16T07:06:42.173Z,20.79
2022-10-16T07:11:45.111Z,19.63
2022-10-16T07:16:50.467Z,19.05
2022-10-16T07:21:53.248Z,18.70
2022-10-16T07:26:56.047Z,18.44
2022-10-16T07:32:01.117Z,18.24
2022-10-16T07:37:04.050Z,18.09
2022-10-16T07:42:09.264Z,17.98
2022-10-16T07:47:14.427Z,17.95
2022-10-16T07:52:17.716Z,17.97
2022-10-16T07:57:21.215Z,17.99
2022-10-16T08:02:25.248Z,18.01
2022-10-16T08:07:28.299Z,18.05
2022-10-16T08:12:31.320Z,18.11
2022-10-16T08:17:34.167Z,18.16
2022-10-16T08:22:36.994Z,18.20
2022-10-16T08:27:39.882Z,18.25
2022-10-16T08:32:43.235Z,18.29
2022-10-16T08:37:45.983Z,18.35
2022-10-16T08:42:54.502Z,18.42
2022-10-16T08:48:16.345Z,18.50
2022-10-16T08:53:27.379Z,18.60
2022-10-16T08:58:31.554Z,18.72
2022-10-16T09:03:52.449Z,18.93
2022-10-16T09:09:04.373Z,19.17
2022-10-16T09:14:54.777Z,19.35
2022-10-16T09:20:12.791Z,19.51
2022-10-16T09:25:22.631Z,19.62
2022-10-16T09:30:30.966Z,19.74
2022-10-16T09:35:39.845Z,19.85
2022-10-16T09:40:44.498Z,19.93
2022-10-16T09:45:57.505Z,20.02
2022-10-16T09:51:04.888Z,20.11
2022-10-16T09:56:11.723Z,20.17
2022-10-16T10:01:16.971Z,20.19
2022-10-16T10:06:22.603Z,20.21
2022-10-16T10:11:41.287Z,20.22
2022-10-16T10:16:44.227Z,20.28
2022-10-16T10:21:47.575Z,20.42
2022-10-16T10:27:05.516Z,20.49
2022-10-16T10:32:29.442Z,20.58
2022-10-16T10:37:54.052Z,20.73
2022-10-16T10:43:12.315Z,22.02
2022-10-16T10:48:30.375Z,24.78
2022-10-16T10:54:04.123Z,25.38
2022-10-16T10:59:18.500Z,24.19
2022-10-16T11:04:48.561Z,23.58
2022-10-16T11:10:03.189Z,23.17
2022-10-16T11:15:14.724Z,22.86
2022-10-16T11:20:26.270Z,22.62
2022-10-16T11:25:32.351Z,22.45
2022-10-16T11:30:47.141Z,22.27
2022-10-16T11:36:00.179Z,22.10
2022-10-16T11:41:36.391Z,21.96
2022-10-16T11:46:58.925Z,21.83
2022-10-16T11:52:21.918Z,21.71
2022-10-16T11:57:28.127Z,21.65
2022-10-16T12:02:31.600Z,21.60
2022-10-16T12:07:43.753Z,21.56
2022-10-16T12:12:47.540Z,21.55
2022-10-16T12:17:51.146Z,21.53
2022-10-16T12:23:08.380Z,21.49
2022-10-16T12:28:14.115Z,21.42
2022-10-16T12:33:26.356Z,21.44
2022-10-16T12:38:52.718Z,21.48
2022-10-16T12:43:56.254Z,21.51
2022-10-16T12:49:14.603Z,21.55
2022-10-16T12:54:51.049Z,21.59
2022-10-16T13:00:22.580Z,21.57
2022-10-16T13:05:59.714Z,21.55
2022-10-16T13:11:45.145Z,21.53
2022-10-16T13:17:04.077Z,21.52
2022-10-16T13:22:38.915Z,21.55
2022-10-16T13:28:03.031Z,21.59
2022-10-16T13:33:13.720Z,21.58
2022-10-16T13:38:20.072Z,21.53
2022-10-16T13:43:37.784Z,21.47
2022-10-16T13:48:42.828Z,21.42
2022-10-16T13:53:47.228Z,21.40
2022-10-16T13:59:05.289Z,21.38
2022-10-16T14:04:11.151Z,21.35
2022-10-16T14:09:25.283Z,21.31
2022-10-16T14:14:36.977Z,21.29
2022-10-16T14:19:40.011Z,21.29
2022-10-16T14:24:43.001Z,21.30
2022-10-16T14:29:45.890Z,21.29
2022-10-16T14:34:54.809Z,21.28
2022-10-16T14:39:58.082Z,21.26
2022-10-16T14:45:04.849Z,21.25
2022-10-16T14:50:15.472Z,21.25
2022-10-16T14:55:19.350Z,21.23
2022-10-16T15:00:25.346Z,21.22
2022-10-16T15:05:30.921Z,21.20
2022-10-16T15:10:39.808Z,21.20
2022-10-16T15:15:47.767Z,21.18
2022-10-16T15:20:51.757Z,21.15
2022-10-16T15:25:56.718Z,21.12
2022-10-16T15:30:59.732Z,21.09
2022-10-16T15:36:04.280Z,21.04
2022-10-16T15:41:07.435Z,20.98
2022-10-16T15:46:15.375Z,20.92
2022-10-16T15:51:19.639Z,20.86
2022-10-16T15:56:23.467Z,20.81
2022-10-16T16:01:26.897Z,20.70
2022-10-16T16:06:30.570Z,20.56
2022-10-16T16:11:38.615Z,20.40
2022-10-16T16:16:42.516Z,20.24
2022-10-16T16:21:45.626Z,20.09
2022-10-16T16:26:48.441Z,19.94
2022-10-16T16:31:51.253Z,19.78
2022-10-16T16:36:54.961Z,19.62
2022-10-16T16:41:59.681Z,19.49
2022-10-16T16:47:04.346Z,19.36
2022-10-16T16:52:07.346Z,19.24
2022-10-16T16:57:10.452Z,19.12
2022-10-16T17:02:13.510Z,19.01
2022-10-16T17:07:18.442Z,18.90
2022-10-16T17:12:22.728Z,18.81
2022-10-16T17:17:26.203Z,18.74
2022-10-16T17:22:29.645Z,19.59
2022-10-16T17:27:34.434Z,22.36
2022-10-16T17:32:38.055Z,22.49
2022-10-16T17:37:42.238Z,21.44
2022-10-16T17:42:45.162Z,20.93
2022-10-16T17:47:48.269Z,20.54
2022-10-16T17:52:51.188Z,20.18
2022-10-16T17:57:54.130Z,19.83
2022-10-16T18:02:57.358Z,19.52
2022-10-16T18:08:00.248Z,19.25
2022-10-16T18:13:03.466Z,19.02
2022-10-16T18:18:06.703Z,18.82
2022-10-16T18:23:09.581Z,18.67
2022-10-16T18:28:12.549Z,18.52
2022-10-16T18:33:15.418Z,18.35
2022-10-16T18:38:18.759Z,18.23
2022-10-16T18:43:21.665Z,18.20
2022-10-16T18:48:25.238Z,18.28
2022-10-16T18:58:32.032Z,18.40
2022-10-16T19:03:35.227Z,18.42
2022-10-16T19:08:39.226Z,18.37
2022-10-16T19:13:46.178Z,18.30
2022-10-16T19:18:50.794Z,18.19
2022-10-16T19:23:56.286Z,18.10
2022-10-16T19:29:02.472Z,18.00
2022-10-16T19:34:06.902Z,17.89
2022-10-16T19:39:25.864Z,17.77
2022-10-16T19:44:37.809Z,19.01
2022-10-16T19:49:40.822Z,21.74
2022-10-16T19:54:43.706Z,21.54
2022-10-16T19:59:46.757Z,20.35
2022-10-16T20:04:49.807Z,19.72
2022-10-16T20:09:53.233Z,19.29
2022-10-16T20:14:56.293Z,18.89
2022-10-16T20:19:59.155Z,18.51
2022-10-16T20:25:14.327Z,18.22
2022-10-16T20:30:18.671Z,18.06
2022-10-16T20:35:21.713Z,17.84
2022-10-16T20:40:27.627Z,17.62
2022-10-16T20:45:31.149Z,17.42
2022-10-16T20:50:34.218Z,18.33
2022-10-16T20:55:38.099Z,21.08
2022-10-16T21:00:41.044Z,21.61
2022-10-16T21:05:43.963Z,20.32
2022-10-16T21:10:46.766Z,19.49
2022-10-16T21:15:49.841Z,18.89
2022-10-16T21:20:52.751Z,18.38
2022-10-16T21:25:55.678Z,17.97
2022-10-16T21:30:58.739Z,17.61
2022-10-16T21:36:01.773Z,17.29
2022-10-16T21:41:16.544Z,17.01
2022-10-16T21:46:22.289Z,16.76
2022-10-16T21:51:34.041Z,17.68
2022-10-16T21:56:37.051Z,20.44
2022-10-16T22:01:40.440Z,20.54
2022-10-16T22:06:44.052Z,19.15
2022-10-16T22:11:46.925Z,18.37
2022-10-16T22:16:50.530Z,17.79
2022-10-16T22:21:57.324Z,17.33
2022-10-16T22:27:00.425Z,16.93
2022-10-16T22:32:03.306Z,16.60
2022-10-16T22:37:06.182Z,16.32
2022-10-16T22:42:09.077Z,17.18
2022-10-16T22:47:11.997Z,19.82
2022-10-16T22:52:15.257Z,20.07
2022-10-16T22:57:18.201Z,18.70
2022-10-16T23:02:21.441Z,17.94
2022-10-16T23:07:24.359Z,17.39
2022-10-16T23:12:30.492Z,16.96
2022-10-16T23:17:33.773Z,16.61
2022-10-16T23:22:36.581Z,16.32
2022-10-16T23:27:39.433Z,17.25
2022-10-16T23:32:42.382Z,20.00
2022-10-16T23:37:45.273Z,20.04
2022-10-16T23:42:50.843Z,18.64
2022-10-16T23:47:53.543Z,17.82
2022-10-16T23:52:56.771Z,17.22
2022-10-16T23:57:59.571Z,16.71
